FlightSource - Aviation Photo Database

World Wide Airport Lookup


Search by ICAO
Or
Search by City

FlightSource.ca - Aviation Photo Database - Rexburg Madison County Airport Information
Airport Identification
Name: Rexburg Madison County Airport
ICAO: KRXE
IATA:
Airport Location
City: Rexburg
Region: ID
Country: United States
Continent: North America
Latitude: 43.8339
Longitude: -111.805
Airport Information
Type: Small Airport
Elevation: 4858 Feet ASL
Flight Status: KRXE
More Info: KRXE
Airport Weather    
Metar: KRXE 212353Z AUTO 20010KT 10SM BKN050 OVC095 06/M05 A3017 RMK AO2 SLP230 T00561050 10056 20017 52007
TAF:


Advertisement